sensor_id;sensor_type;location;lat;lon;timestamp;pressure;altitude;pressure_sealevel;temperature;humidity
77027;BME280;65956;52.986;17.490;2023-04-25T00:01:47;99119.50;;;9.30;82.05
77027;BME280;65956;52.986;17.490;2023-04-25T00:04:13;99119.33;;;9.25;82.09
77027;BME280;65956;52.986;17.490;2023-04-25T00:06:39;99120.58;;;9.21;82.19
77027;BME280;65956;52.986;17.490;2023-04-25T00:09:05;99118.44;;;9.18;82.20
77027;BME280;65956;52.986;17.490;2023-04-25T00:11:35;99114.77;;;9.13;82.18
77027;BME280;65956;52.986;17.490;2023-04-25T00:14:03;99111.64;;;9.06;82.36
77027;BME280;65956;52.986;17.490;2023-04-25T00:16:30;99114.32;;;8.99;82.35
77027;BME280;65956;52.986;17.490;2023-04-25T00:19:00;99112.63;;;8.94;82.43
77027;BME280;65956;52.986;17.490;2023-04-25T00:21:27;99111.89;;;8.89;82.47
77027;BME280;65956;52.986;17.490;2023-04-25T00:23:54;99112.74;;;8.83;82.73
77027;BME280;65956;52.986;17.490;2023-04-25T00:26:21;99115.41;;;8.80;82.71
77027;BME280;65956;52.986;17.490;2023-04-25T00:28:47;99119.46;;;8.77;82.71
77027;BME280;65956;52.986;17.490;2023-04-25T00:31:14;99122.59;;;8.72;82.91
77027;BME280;65956;52.986;17.490;2023-04-25T00:33:40;99120.43;;;8.67;82.95
77027;BME280;65956;52.986;17.490;2023-04-25T00:36:07;99124.07;;;8.64;83.09
77027;BME280;65956;52.986;17.490;2023-04-25T00:38:33;99128.57;;;8.60;83.27
77027;BME280;65956;52.986;17.490;2023-04-25T00:40:59;99128.16;;;8.57;83.15
77027;BME280;65956;52.986;17.490;2023-04-25T00:43:26;99133.21;;;8.55;83.12
77027;BME280;65956;52.986;17.490;2023-04-25T00:45:53;99130.73;;;8.51;83.10
77027;BME280;65956;52.986;17.490;2023-04-25T00:48:23;99139.29;;;8.48;83.06
77027;BME280;65956;52.986;17.490;2023-04-25T00:50:53;99140.79;;;8.47;82.95
77027;BME280;65956;52.986;17.490;2023-04-25T00:53:21;99142.35;;;8.44;82.85
77027;BME280;65956;52.986;17.490;2023-04-25T00:55:48;99140.11;;;8.41;82.93
77027;BME280;65956;52.986;17.490;2023-04-25T00:58:17;99140.41;;;8.38;83.02
77027;BME280;65956;52.986;17.490;2023-04-25T01:00:45;99142.13;;;8.35;83.19
77027;BME280;65956;52.986;17.490;2023-04-25T01:03:15;99146.30;;;8.32;83.26
77027;BME280;65956;52.986;17.490;2023-04-25T01:05:43;99148.08;;;8.28;83.28
77027;BME280;65956;52.986;17.490;2023-04-25T01:08:09;99145.77;;;8.25;83.28
77027;BME280;65956;52.986;17.490;2023-04-25T01:10:36;99144.69;;;8.23;83.32
77027;BME280;65956;52.986;17.490;2023-04-25T01:13:02;99152.05;;;8.20;83.32
77027;BME280;65956;52.986;17.490;2023-04-25T01:15:29;99146.80;;;8.17;83.36
77027;BME280;65956;52.986;17.490;2023-04-25T01:17:55;99152.71;;;8.13;83.35
77027;BME280;65956;52.986;17.490;2023-04-25T01:20:22;99149.45;;;8.10;83.41
77027;BME280;65956;52.986;17.490;2023-04-25T01:22:52;99150.59;;;8.06;83.48
77027;BME280;65956;52.986;17.490;2023-04-25T01:25:19;99148.17;;;8.01;83.60
77027;BME280;65956;52.986;17.490;2023-04-25T01:27:46;99148.92;;;7.96;83.54
77027;BME280;65956;52.986;17.490;2023-04-25T01:30:13;99149.61;;;7.92;83.62
77027;BME280;65956;52.986;17.490;2023-04-25T01:32:41;99148.62;;;7.87;83.59
77027;BME280;65956;52.986;17.490;2023-04-25T01:35:09;99151.04;;;7.83;83.65
77027;BME280;65956;52.986;17.490;2023-04-25T01:37:37;99151.31;;;7.77;83.56
77027;BME280;65956;52.986;17.490;2023-04-25T01:40:04;99155.23;;;7.73;83.63
77027;BME280;65956;52.986;17.490;2023-04-25T01:42:35;99156.20;;;7.68;83.69
77027;BME280;65956;52.986;17.490;2023-04-25T01:45:02;99162.02;;;7.64;83.86
77027;BME280;65956;52.986;17.490;2023-04-25T01:47:29;99157.14;;;7.59;83.80
77027;BME280;65956;52.986;17.490;2023-04-25T01:49:55;99161.30;;;7.55;83.92
77027;BME280;65956;52.986;17.490;2023-04-25T01:52:22;99163.30;;;7.50;84.16
77027;BME280;65956;52.986;17.490;2023-04-25T01:54:49;99166.48;;;7.46;84.01
77027;BME280;65956;52.986;17.490;2023-04-25T01:57:17;99167.80;;;7.41;84.14
77027;BME280;65956;52.986;17.490;2023-04-25T01:59:43;99165.61;;;7.37;84.16
77027;BME280;65956;52.986;17.490;2023-04-25T02:02:36;99169.86;;;7.35;84.10
77027;BME280;65956;52.986;17.490;2023-04-25T02:05:02;99167.61;;;7.31;84.22
77027;BME280;65956;52.986;17.490;2023-04-25T02:07:29;99168.45;;;7.29;84.06
77027;BME280;65956;52.986;17.490;2023-04-25T02:09:56;99172.86;;;7.27;83.95
77027;BME280;65956;52.986;17.490;2023-04-25T02:12:23;99172.38;;;7.25;83.88
77027;BME280;65956;52.986;17.490;2023-04-25T02:15:13;99166.33;;;7.23;83.84
77027;BME280;65956;52.986;17.490;2023-04-25T02:17:49;99168.13;;;7.20;83.70
77027;BME280;65956;52.986;17.490;2023-04-25T02:20:15;99171.41;;;7.17;83.75
77027;BME280;65956;52.986;17.490;2023-04-25T02:22:45;99174.77;;;7.14;83.90
77027;BME280;65956;52.986;17.490;2023-04-25T02:25:12;99176.49;;;7.12;83.53
77027;BME280;65956;52.986;17.490;2023-04-25T02:27:38;99176.70;;;7.10;83.41
77027;BME280;65956;52.986;17.490;2023-04-25T02:30:05;99179.13;;;7.09;83.26
77027;BME280;65956;52.986;17.490;2023-04-25T02:32:33;99179.48;;;7.04;83.40
77027;BME280;65956;52.986;17.490;2023-04-25T02:35:00;99187.42;;;7.00;83.38
77027;BME280;65956;52.986;17.490;2023-04-25T02:37:30;99187.52;;;6.96;83.49
77027;BME280;65956;52.986;17.490;2023-04-25T02:39:56;99187.70;;;6.92;83.52
77027;BME280;65956;52.986;17.490;2023-04-25T02:42:22;99185.11;;;6.89;83.51
77027;BME280;65956;52.986;17.490;2023-04-25T02:44:49;99184.52;;;6.85;83.45
77027;BME280;65956;52.986;17.490;2023-04-25T02:47:15;99185.81;;;6.81;83.33
77027;BME280;65956;52.986;17.490;2023-04-25T02:49:42;99189.48;;;6.77;83.18
77027;BME280;65956;52.986;17.490;2023-04-25T02:52:08;99186.76;;;6.76;83.18
77027;BME280;65956;52.986;17.490;2023-04-25T02:54:35;99186.83;;;6.74;83.17
77027;BME280;65956;52.986;17.490;2023-04-25T02:57:01;99186.33;;;6.72;82.82
77027;BME280;65956;52.986;17.490;2023-04-25T02:59:31;99180.61;;;6.72;82.83
77027;BME280;65956;52.986;17.490;2023-04-25T03:01:57;99178.38;;;6.69;82.67
77027;BME280;65956;52.986;17.490;2023-04-25T03:04:24;99180.02;;;6.68;82.52
77027;BME280;65956;52.986;17.490;2023-04-25T03:06:50;99179.45;;;6.67;82.53
77027;BME280;65956;52.986;17.490;2023-04-25T03:09:19;99180.21;;;6.65;82.62
77027;BME280;65956;52.986;17.490;2023-04-25T03:11:46;99176.62;;;6.63;82.90
77027;BME280;65956;52.986;17.490;2023-04-25T03:14:13;99176.04;;;6.62;82.61
77027;BME280;65956;52.986;17.490;2023-04-25T03:16:39;99174.54;;;6.61;82.74
77027;BME280;65956;52.986;17.490;2023-04-25T03:19:05;99177.62;;;6.61;82.72
77027;BME280;65956;52.986;17.490;2023-04-25T03:21:33;99179.35;;;6.60;82.55
77027;BME280;65956;52.986;17.490;2023-04-25T03:24:02;99178.60;;;6.58;82.63
77027;BME280;65956;52.986;17.490;2023-04-25T03:26:28;99180.02;;;6.58;82.56
77027;BME280;65956;52.986;17.490;2023-04-25T03:28:54;99176.61;;;6.57;82.63
77027;BME280;65956;52.986;17.490;2023-04-25T03:31:20;99182.46;;;6.57;82.51
77027;BME280;65956;52.986;17.490;2023-04-25T03:33:47;99182.14;;;6.57;82.50
77027;BME280;65956;52.986;17.490;2023-04-25T03:36:14;99185.94;;;6.56;82.67
77027;BME280;65956;52.986;17.490;2023-04-25T03:38:40;99192.28;;;6.54;82.37
77027;BME280;65956;52.986;17.490;2023-04-25T03:41:09;99193.36;;;6.51;82.48
77027;BME280;65956;52.986;17.490;2023-04-25T03:43:42;99191.81;;;6.48;82.56
77027;BME280;65956;52.986;17.490;2023-04-25T03:46:11;99196.20;;;6.45;82.47
77027;BME280;65956;52.986;17.490;2023-04-25T03:48:37;99196.55;;;6.42;82.45
77027;BME280;65956;52.986;17.490;2023-04-25T03:51:03;99195.94;;;6.39;82.66
77027;BME280;65956;52.986;17.490;2023-04-25T03:53:29;99200.32;;;6.35;82.63
77027;BME280;65956;52.986;17.490;2023-04-25T03:56:22;99205.73;;;6.33;82.81
77027;BME280;65956;52.986;17.490;2023-04-25T03:58:53;99206.16;;;6.30;82.74
77027;BME280;65956;52.986;17.490;2023-04-25T04:01:20;99205.80;;;6.27;82.77
77027;BME280;65956;52.986;17.490;2023-04-25T04:03:46;99210.34;;;6.25;82.80
77027;BME280;65956;52.986;17.490;2023-04-25T04:06:13;99214.65;;;6.22;82.64
77027;BME280;65956;52.986;17.490;2023-04-25T04:08:42;99216.95;;;6.19;82.69
77027;BME280;65956;52.986;17.490;2023-04-25T04:11:09;99214.64;;;6.17;82.60
77027;BME280;65956;52.986;17.490;2023-04-25T04:13:36;99218.98;;;6.16;82.79
77027;BME280;65956;52.986;17.490;2023-04-25T04:16:02;99219.80;;;6.14;82.89
77027;BME280;65956;52.986;17.490;2023-04-25T04:18:30;99219.02;;;6.14;82.87
77027;BME280;65956;52.986;17.490;2023-04-25T04:20:56;99224.62;;;6.14;82.89
77027;BME280;65956;52.986;17.490;2023-04-25T04:23:24;99227.58;;;6.16;82.93
77027;BME280;65956;52.986;17.490;2023-04-25T04:25:53;99228.38;;;6.16;82.95
77027;BME280;65956;52.986;17.490;2023-04-25T04:28:35;99226.66;;;6.17;82.82
77027;BME280;65956;52.986;17.490;2023-04-25T04:31:12;99228.00;;;6.17;82.76
77027;BME280;65956;52.986;17.490;2023-04-25T04:33:38;99230.54;;;6.17;82.91
77027;BME280;65956;52.986;17.490;2023-04-25T04:36:05;99230.77;;;6.17;82.90
77027;BME280;65956;52.986;17.490;2023-04-25T04:38:33;99232.05;;;6.18;83.05
77027;BME280;65956;52.986;17.490;2023-04-25T04:41:02;99235.91;;;6.17;82.94
77027;BME280;65956;52.986;17.490;2023-04-25T04:43:47;99237.40;;;6.18;82.91
77027;BME280;65956;52.986;17.490;2023-04-25T04:46:32;99244.13;;;6.18;83.06
77027;BME280;65956;52.986;17.490;2023-04-25T04:49:22;99245.23;;;6.18;83.16
77027;BME280;65956;52.986;17.490;2023-04-25T04:52:07;99245.48;;;6.18;83.25
77027;BME280;65956;52.986;17.490;2023-04-25T04:55:03;99244.73;;;6.20;83.19
77027;BME280;65956;52.986;17.490;2023-04-25T04:57:52;99242.67;;;6.25;83.29
77027;BME280;65956;52.986;17.490;2023-04-25T05:00:29;99241.40;;;6.34;83.41
77027;BME280;65956;52.986;17.490;2023-04-25T05:03:11;99244.55;;;6.43;83.44
77027;BME280;65956;52.986;17.490;2023-04-25T05:06:04;99243.07;;;6.54;83.31
77027;BME280;65956;52.986;17.490;2023-04-25T05:08:46;99237.98;;;6.67;83.19
77027;BME280;65956;52.986;17.490;2023-04-25T05:11:35;99244.67;;;6.82;82.89
77027;BME280;65956;52.986;17.490;2023-04-25T05:14:13;99246.09;;;6.93;82.66
77027;BME280;65956;52.986;17.490;2023-04-25T05:16:53;99239.38;;;7.04;82.24
77027;BME280;65956;52.986;17.490;2023-04-25T05:19:28;99237.23;;;7.15;82.01
77027;BME280;65956;52.986;17.490;2023-04-25T05:22:15;99247.58;;;7.25;81.72
77027;BME280;65956;52.986;17.490;2023-04-25T05:24:59;99248.70;;;7.33;81.13
77027;BME280;65956;52.986;17.490;2023-04-25T05:27:38;99243.14;;;7.38;80.82
77027;BME280;65956;52.986;17.490;2023-04-25T05:30:27;99247.98;;;7.46;80.68
77027;BME280;65956;52.986;17.490;2023-04-25T05:33:06;99248.13;;;7.52;80.03
77027;BME280;65956;52.986;17.490;2023-04-25T05:35:32;99250.58;;;7.56;80.07
77027;BME280;65956;52.986;17.490;2023-04-25T05:37:58;99248.34;;;7.62;80.22
77027;BME280;65956;52.986;17.490;2023-04-25T05:40:44;99256.16;;;7.73;79.96
77027;BME280;65956;52.986;17.490;2023-04-25T05:43:17;99256.03;;;7.84;79.70
77027;BME280;65956;52.986;17.490;2023-04-25T05:46:03;99255.05;;;7.95;79.91
77027;BME280;65956;52.986;17.490;2023-04-25T05:48:39;99254.48;;;8.10;79.47
77027;BME280;65956;52.986;17.490;2023-04-25T05:51:34;99249.13;;;8.22;78.70
77027;BME280;65956;52.986;17.490;2023-04-25T05:54:25;99244.89;;;8.33;78.66
77027;BME280;65956;52.986;17.490;2023-04-25T05:56:52;99247.64;;;8.40;78.33
77027;BME280;65956;52.986;17.490;2023-04-25T05:59:18;99249.52;;;8.48;78.14
77027;BME280;65956;52.986;17.490;2023-04-25T06:01:45;99250.84;;;8.54;77.87
77027;BME280;65956;52.986;17.490;2023-04-25T06:04:12;99249.60;;;8.56;77.33
77027;BME280;65956;52.986;17.490;2023-04-25T06:06:38;99254.23;;;8.60;77.62
77027;BME280;65956;52.986;17.490;2023-04-25T06:09:04;99249.93;;;8.68;77.84
77027;BME280;65956;52.986;17.490;2023-04-25T06:11:31;99248.27;;;8.69;76.55
77027;BME280;65956;52.986;17.490;2023-04-25T06:13:57;99250.70;;;8.76;76.85
77027;BME280;65956;52.986;17.490;2023-04-25T06:16:23;99251.95;;;8.86;76.78
77027;BME280;65956;52.986;17.490;2023-04-25T06:18:51;99247.51;;;8.96;76.80
77027;BME280;65956;52.986;17.490;2023-04-25T06:21:17;99250.55;;;9.14;76.89
77027;BME280;65956;52.986;17.490;2023-04-25T06:23:43;99254.90;;;9.27;75.50
77027;BME280;65956;52.986;17.490;2023-04-25T06:26:12;99257.63;;;9.32;74.48
77027;BME280;65956;52.986;17.490;2023-04-25T06:28:39;99258.39;;;9.42;74.77
77027;BME280;65956;52.986;17.490;2023-04-25T06:31:06;99259.34;;;9.57;74.88
77027;BME280;65956;52.986;17.490;2023-04-25T06:33:32;99259.53;;;9.67;74.34
77027;BME280;65956;52.986;17.490;2023-04-25T06:35:58;99261.14;;;9.72;73.44
77027;BME280;65956;52.986;17.490;2023-04-25T06:38:26;99256.45;;;9.75;72.77
77027;BME280;65956;52.986;17.490;2023-04-25T06:40:52;99256.63;;;9.80;73.02
77027;BME280;65956;52.986;17.490;2023-04-25T06:43:19;99255.31;;;9.93;74.06
77027;BME280;65956;52.986;17.490;2023-04-25T06:45:50;99256.53;;;10.08;73.48
77027;BME280;65956;52.986;17.490;2023-04-25T06:48:17;99254.59;;;10.17;72.74
77027;BME280;65956;52.986;17.490;2023-04-25T06:50:44;99253.73;;;10.30;73.31
77027;BME280;65956;52.986;17.490;2023-04-25T06:53:11;99250.48;;;10.41;71.84
77027;BME280;65956;52.986;17.490;2023-04-25T06:55:38;99248.73;;;10.57;70.87
77027;BME280;65956;52.986;17.490;2023-04-25T06:58:12;99247.92;;;10.73;70.52
77027;BME280;65956;52.986;17.490;2023-04-25T07:00:59;99249.13;;;10.83;70.10
77027;BME280;65956;52.986;17.490;2023-04-25T07:03:25;99245.76;;;10.93;70.74
77027;BME280;65956;52.986;17.490;2023-04-25T07:05:55;99249.91;;;10.90;69.96
77027;BME280;65956;52.986;17.490;2023-04-25T07:08:21;99251.27;;;10.86;70.14
77027;BME280;65956;52.986;17.490;2023-04-25T07:10:47;99247.05;;;10.86;69.47
77027;BME280;65956;52.986;17.490;2023-04-25T07:13:13;99246.96;;;10.83;68.99
77027;BME280;65956;52.986;17.490;2023-04-25T07:15:40;99248.17;;;10.78;69.66
77027;BME280;65956;52.986;17.490;2023-04-25T07:18:06;99246.34;;;10.77;70.22
77027;BME280;65956;52.986;17.490;2023-04-25T07:20:32;99253.83;;;10.67;69.69
77027;BME280;65956;52.986;17.490;2023-04-25T07:22:59;99251.76;;;10.55;69.65
77027;BME280;65956;52.986;17.490;2023-04-25T07:25:25;99248.88;;;10.45;69.11
77027;BME280;65956;52.986;17.490;2023-04-25T07:27:51;99248.33;;;10.32;68.81
77027;BME280;65956;52.986;17.490;2023-04-25T07:30:20;99253.41;;;10.24;68.87
77027;BME280;65956;52.986;17.490;2023-04-25T07:32:46;99258.90;;;10.26;69.68
77027;BME280;65956;52.986;17.490;2023-04-25T07:35:12;99255.57;;;10.30;70.04
77027;BME280;65956;52.986;17.490;2023-04-25T07:37:38;99261.30;;;10.36;69.90
77027;BME280;65956;52.986;17.490;2023-04-25T07:40:13;99259.40;;;10.45;69.72
77027;BME280;65956;52.986;17.490;2023-04-25T07:42:45;99259.48;;;10.52;69.07
77027;BME280;65956;52.986;17.490;2023-04-25T07:45:11;99263.30;;;10.63;68.71
77027;BME280;65956;52.986;17.490;2023-04-25T07:47:38;99261.55;;;10.73;68.03
77027;BME280;65956;52.986;17.490;2023-04-25T07:50:04;99265.13;;;10.82;68.25
77027;BME280;65956;52.986;17.490;2023-04-25T07:52:32;99265.90;;;10.92;67.71
77027;BME280;65956;52.986;17.490;2023-04-25T07:55:07;99267.41;;;10.98;67.13
77027;BME280;65956;52.986;17.490;2023-04-25T07:57:41;99273.54;;;11.03;66.56
77027;BME280;65956;52.986;17.490;2023-04-25T08:00:08;99275.13;;;11.08;66.19
77027;BME280;65956;52.986;17.490;2023-04-25T08:02:39;99275.44;;;11.12;66.69
77027;BME280;65956;52.986;17.490;2023-04-25T08:05:07;99274.35;;;11.29;67.28
77027;BME280;65956;52.986;17.490;2023-04-25T08:07:39;99277.69;;;11.37;64.91
77027;BME280;65956;52.986;17.490;2023-04-25T08:10:07;99279.98;;;11.46;65.71
77027;BME280;65956;52.986;17.490;2023-04-25T08:12:33;99279.36;;;11.61;65.68
77027;BME280;65956;52.986;17.490;2023-04-25T08:14:59;99275.95;;;11.56;64.47
77027;BME280;65956;52.986;17.490;2023-04-25T08:17:28;99283.59;;;11.54;64.86
77027;BME280;65956;52.986;17.490;2023-04-25T08:19:54;99277.09;;;11.48;64.44
77027;BME280;65956;52.986;17.490;2023-04-25T08:22:24;99282.39;;;11.34;64.16
77027;BME280;65956;52.986;17.490;2023-04-25T08:25:04;99284.54;;;11.39;65.23
77027;BME280;65956;52.986;17.490;2023-04-25T08:27:32;99288.80;;;11.48;65.36
77027;BME280;65956;52.986;17.490;2023-04-25T08:29:58;99292.13;;;11.57;64.71
77027;BME280;65956;52.986;17.490;2023-04-25T08:32:24;99288.68;;;11.64;64.57
77027;BME280;65956;52.986;17.490;2023-04-25T08:35:10;99293.12;;;11.75;64.16
77027;BME280;65956;52.986;17.490;2023-04-25T08:37:36;99292.86;;;11.79;63.48
77027;BME280;65956;52.986;17.490;2023-04-25T08:40:12;99291.17;;;11.82;63.28
77027;BME280;65956;52.986;17.490;2023-04-25T08:43:02;99294.28;;;11.84;63.73
77027;BME280;65956;52.986;17.490;2023-04-25T08:45:31;99290.73;;;11.94;64.11
77027;BME280;65956;52.986;17.490;2023-04-25T08:47:58;99292.52;;;12.01;63.02
77027;BME280;65956;52.986;17.490;2023-04-25T08:50:24;99295.49;;;12.12;63.20
77027;BME280;65956;52.986;17.490;2023-04-25T08:52:53;99297.39;;;12.28;64.06
77027;BME280;65956;52.986;17.490;2023-04-25T08:55:21;99301.93;;;12.53;62.66
77027;BME280;65956;52.986;17.490;2023-04-25T08:57:49;99299.95;;;12.61;61.19
77027;BME280;65956;52.986;17.490;2023-04-25T09:00:16;99303.02;;;12.69;61.62
77027;BME280;65956;52.986;17.490;2023-04-25T09:02:44;99300.99;;;12.72;61.56
77027;BME280;65956;52.986;17.490;2023-04-25T09:05:13;99299.92;;;12.65;61.02
77027;BME280;65956;52.986;17.490;2023-04-25T09:07:40;99302.98;;;12.62;61.49
77027;BME280;65956;52.986;17.490;2023-04-25T09:10:06;99302.77;;;12.60;60.84
77027;BME280;65956;52.986;17.490;2023-04-25T09:12:36;99307.08;;;12.60;62.47
77027;BME280;65956;52.986;17.490;2023-04-25T09:15:09;99305.64;;;12.72;61.87
77027;BME280;65956;52.986;17.490;2023-04-25T09:18:04;99309.62;;;12.61;60.75
77027;BME280;65956;52.986;17.490;2023-04-25T09:20:41;99319.92;;;12.36;60.40
77027;BME280;65956;52.986;17.490;2023-04-25T09:23:08;99321.85;;;12.06;60.65
77027;BME280;65956;52.986;17.490;2023-04-25T09:25:37;99324.77;;;11.81;61.63
77027;BME280;65956;52.986;17.490;2023-04-25T09:28:09;99324.95;;;11.63;63.02
77027;BME280;65956;52.986;17.490;2023-04-25T09:30:36;99326.41;;;11.55;63.57
77027;BME280;65956;52.986;17.490;2023-04-25T09:33:12;99325.13;;;11.54;63.60
77027;BME280;65956;52.986;17.490;2023-04-25T09:35:43;99326.39;;;11.58;64.18
77027;BME280;65956;52.986;17.490;2023-04-25T09:38:14;99325.51;;;11.69;64.47
77027;BME280;65956;52.986;17.490;2023-04-25T09:41:02;99332.25;;;11.82;64.29
77027;BME280;65956;52.986;17.490;2023-04-25T09:43:35;99327.52;;;11.87;62.92
77027;BME280;65956;52.986;17.490;2023-04-25T09:46:02;99325.95;;;11.82;62.90
77027;BME280;65956;52.986;17.490;2023-04-25T09:48:35;99331.37;;;11.82;64.06
77027;BME280;65956;52.986;17.490;2023-04-25T09:51:06;99334.74;;;11.70;63.26
77027;BME280;65956;52.986;17.490;2023-04-25T09:53:34;99334.37;;;11.56;63.38
77027;BME280;65956;52.986;17.490;2023-04-25T09:56:11;99336.92;;;11.55;63.82
77027;BME280;65956;52.986;17.490;2023-04-25T09:58:39;99338.36;;;11.53;63.44
77027;BME280;65956;52.986;17.490;2023-04-25T10:01:07;99331.43;;;11.54;63.50
77027;BME280;65956;52.986;17.490;2023-04-25T10:03:39;99344.05;;;11.78;63.41
77027;BME280;65956;52.986;17.490;2023-04-25T10:06:30;99345.92;;;11.92;62.61
77027;BME280;65956;52.986;17.490;2023-04-25T10:08:57;99347.98;;;11.99;62.19
77027;BME280;65956;52.986;17.490;2023-04-25T10:11:24;99351.92;;;12.10;61.73
77027;BME280;65956;52.986;17.490;2023-04-25T10:13:52;99348.52;;;12.03;61.44
77027;BME280;65956;52.986;17.490;2023-04-25T10:16:18;99354.36;;;11.99;62.32
77027;BME280;65956;52.986;17.490;2023-04-25T10:18:44;99354.63;;;11.93;62.02
77027;BME280;65956;52.986;17.490;2023-04-25T10:21:11;99348.35;;;11.85;61.97
77027;BME280;65956;52.986;17.490;2023-04-25T10:23:39;99351.49;;;11.73;62.23
77027;BME280;65956;52.986;17.490;2023-04-25T10:26:06;99349.67;;;11.58;61.79
77027;BME280;65956;52.986;17.490;2023-04-25T10:29:00;99354.98;;;11.44;62.80
77027;BME280;65956;52.986;17.490;2023-04-25T10:31:27;99355.31;;;11.31;62.93
77027;BME280;65956;52.986;17.490;2023-04-25T10:33:54;99354.84;;;11.27;63.43
77027;BME280;65956;52.986;17.490;2023-04-25T10:36:22;99355.48;;;11.22;63.45
77027;BME280;65956;52.986;17.490;2023-04-25T10:38:50;99356.52;;;11.21;63.87
77027;BME280;65956;52.986;17.490;2023-04-25T10:41:20;99354.70;;;11.19;63.58
77027;BME280;65956;52.986;17.490;2023-04-25T10:43:49;99352.32;;;11.18;63.85
77027;BME280;65956;52.986;17.490;2023-04-25T10:46:23;99353.33;;;11.20;63.94
77027;BME280;65956;52.986;17.490;2023-04-25T10:48:55;99353.98;;;11.22;63.87
77027;BME280;65956;52.986;17.490;2023-04-25T10:56:39;99350.45;;;11.34;63.59
77027;BME280;65956;52.986;17.490;2023-04-25T11:01:56;99354.15;;;11.54;63.24
77027;BME280;65956;52.986;17.490;2023-04-25T11:04:29;99351.89;;;11.78;63.20
77027;BME280;65956;52.986;17.490;2023-04-25T11:07:13;99358.85;;;12.11;62.09
77027;BME280;65956;52.986;17.490;2023-04-25T11:09:44;99358.52;;;12.56;61.72
77027;BME280;65956;52.986;17.490;2023-04-25T11:12:11;99352.10;;;12.96;61.30
77027;BME280;65956;52.986;17.490;2023-04-25T11:14:38;99351.23;;;13.33;60.13
77027;BME280;65956;52.986;17.490;2023-04-25T11:17:04;99352.98;;;13.58;58.36
77027;BME280;65956;52.986;17.490;2023-04-25T11:19:32;99352.27;;;13.41;57.16
77027;BME280;65956;52.986;17.490;2023-04-25T11:21:59;99354.23;;;13.28;58.05
77027;BME280;65956;52.986;17.490;2023-04-25T11:24:28;99356.40;;;13.27;58.06
77027;BME280;65956;52.986;17.490;2023-04-25T11:26:54;99357.09;;;13.39;57.60
77027;BME280;65956;52.986;17.490;2023-04-25T11:29:27;99355.73;;;13.47;56.49
77027;BME280;65956;52.986;17.490;2023-04-25T11:31:54;99353.45;;;13.50;55.48
77027;BME280;65956;52.986;17.490;2023-04-25T11:34:27;99353.18;;;13.54;56.24
77027;BME280;65956;52.986;17.490;2023-04-25T11:36:53;99350.02;;;13.65;55.82
77027;BME280;65956;52.986;17.490;2023-04-25T11:39:19;99356.02;;;13.87;55.72
77027;BME280;65956;52.986;17.490;2023-04-25T11:41:46;99356.48;;;14.20;54.88
77027;BME280;65956;52.986;17.490;2023-04-25T11:44:15;99351.14;;;14.61;53.61
77027;BME280;65956;52.986;17.490;2023-04-25T11:46:43;99350.36;;;14.85;52.47
77027;BME280;65956;52.986;17.490;2023-04-25T11:49:09;99348.27;;;14.81;51.90
77027;BME280;65956;52.986;17.490;2023-04-25T11:51:46;99351.02;;;14.47;52.11
77027;BME280;65956;52.986;17.490;2023-04-25T11:54:13;99353.20;;;14.08;53.14
77027;BME280;65956;52.986;17.490;2023-04-25T11:56:45;99354.69;;;13.77;54.26
77027;BME280;65956;52.986;17.490;2023-04-25T11:59:12;99358.81;;;13.43;54.94
77027;BME280;65956;52.986;17.490;2023-04-25T12:01:40;99366.51;;;13.12;55.41
77027;BME280;65956;52.986;17.490;2023-04-25T12:04:20;99365.51;;;12.86;56.39
77027;BME280;65956;52.986;17.490;2023-04-25T12:06:48;99365.16;;;12.80;56.98
77027;BME280;65956;52.986;17.490;2023-04-25T12:09:18;99366.73;;;12.83;56.23
77027;BME280;65956;52.986;17.490;2023-04-25T12:11:52;99362.02;;;12.92;56.87
77027;BME280;65956;52.986;17.490;2023-04-25T12:14:33;99368.56;;;13.04;56.55
77027;BME280;65956;52.986;17.490;2023-04-25T12:17:01;99367.84;;;13.04;56.12
77027;BME280;65956;52.986;17.490;2023-04-25T12:19:36;99363.39;;;13.13;56.39
77027;BME280;65956;52.986;17.490;2023-04-25T12:22:03;99369.08;;;13.31;57.26
77027;BME280;65956;52.986;17.490;2023-04-25T12:24:44;99371.45;;;13.41;57.30
77027;BME280;65956;52.986;17.490;2023-04-25T12:27:14;99370.14;;;13.46;57.61
77027;BME280;65956;52.986;17.490;2023-04-25T12:29:55;99379.48;;;13.45;57.65
77027;BME280;65956;52.986;17.490;2023-04-25T12:32:22;99384.73;;;13.33;57.34
77027;BME280;65956;52.986;17.490;2023-04-25T12:34:48;99384.81;;;13.23;57.56
77027;BME280;65956;52.986;17.490;2023-04-25T12:37:14;99386.29;;;13.19;57.70
77027;BME280;65956;52.986;17.490;2023-04-25T12:39:41;99385.05;;;13.33;57.38
77027;BME280;65956;52.986;17.490;2023-04-25T12:42:07;99380.10;;;13.56;55.76
77027;BME280;65956;52.986;17.490;2023-04-25T12:44:39;99374.24;;;13.88;56.18
77027;BME280;65956;52.986;17.490;2023-04-25T12:47:06;99370.50;;;14.39;54.51
77027;BME280;65956;52.986;17.490;2023-04-25T12:49:32;99376.21;;;14.88;52.63
77027;BME280;65956;52.986;17.490;2023-04-25T12:51:59;99370.84;;;15.23;50.30
77027;BME280;65956;52.986;17.490;2023-04-25T12:54:25;99375.10;;;15.12;50.50
77027;BME280;65956;52.986;17.490;2023-04-25T12:56:51;99373.60;;;15.40;50.89
77027;BME280;65956;52.986;17.490;2023-04-25T12:59:18;99374.77;;;15.85;50.75
77027;BME280;65956;52.986;17.490;2023-04-25T13:01:46;99375.38;;;15.58;50.23
77027;BME280;65956;52.986;17.490;2023-04-25T13:04:12;99374.02;;;15.14;50.78
77027;BME280;65956;52.986;17.490;2023-04-25T13:06:38;99374.37;;;14.88;50.56
77027;BME280;65956;52.986;17.490;2023-04-25T13:09:07;99374.56;;;14.76;51.87
77027;BME280;65956;52.986;17.490;2023-04-25T13:11:33;99375.43;;;14.87;51.66
77027;BME280;65956;52.986;17.490;2023-04-25T13:13:58;99374.80;;;15.44;51.27
77027;BME280;65956;52.986;17.490;2023-04-25T13:16:26;99369.59;;;15.96;50.03
77027;BME280;65956;52.986;17.490;2023-04-25T13:18:52;99374.59;;;16.00;49.76